Time;durP1;ratioP1;P1;durP2;ratioP2;P2;SDS_P1;SDS_P2;PMS_P1;PMS_P2;Temp;Humidity;BMP_temperature;BMP_pressure;BME280_temperature;BME280_humidity;BME280_pressure;Samples;Min_cycle;Max_cycle;Signal;HPM_P1;HPM_P2
2021/12/03 00:01:12;;;;;;;7.15;4.57;;;307.50;2304.00;;;;;;5057914;28;20016;-90
2021/12/03 00:03:38;;;;;;;6.38;4.25;;;307.50;2304.00;;;;;;5057377;28;20039;-86
2021/12/03 00:06:05;;;;;;;16.13;7.88;;;307.50;2304.00;;;;;;5057738;28;20039;-89
2021/12/03 00:08:31;;;;;;;12.82;5.57;;;307.40;2304.00;;;;;;5057772;28;20016;-89
2021/12/03 00:11:01;;;;;;;10.55;4.68;;;307.30;2304.00;;;;;;5057516;28;20084;-88
2021/12/03 00:13:30;;;;;;;11.38;4.70;;;307.30;2304.00;;;;;;5057602;28;20083;-89
2021/12/03 00:15:57;;;;;;;7.85;3.67;;;307.40;2304.00;;;;;;5057629;28;20021;-89
2021/12/03 00:18:24;;;;;;;8.00;4.90;;;307.40;2304.00;;;;;;5057175;28;20027;-88
2021/12/03 00:20:50;;;;;;;7.43;4.50;;;282.50;2278.40;;;;;;5057172;28;20022;-89
2021/12/03 00:23:19;;;;;;;9.10;5.47;;;307.40;2304.00;;;;;;5057230;28;20052;-88
2021/12/03 00:25:45;;;;;;;11.75;6.35;;;307.40;2304.00;;;;;;5057328;28;20028;-89
2021/12/03 00:28:11;;;;;;;6.70;4.22;;;307.30;2304.00;;;;;;5057451;28;20021;-89
2021/12/03 00:30:37;;;;;;;9.25;4.35;;;307.40;2304.00;;;;;;5057501;28;20166;-88
2021/12/03 00:33:05;;;;;;;10.55;4.55;;;307.40;2304.00;;;;;;5057576;28;20024;-88
2021/12/03 00:35:32;;;;;;;9.50;4.30;;;307.40;2304.00;;;;;;5082668;28;20091;-89
2021/12/03 00:37:58;;;;;;;9.18;5.07;;;307.40;2304.00;;;;;;5079387;28;20030;-89
2021/12/03 00:40:31;;;;;;;7.22;4.00;;;307.40;2304.00;;;;;;5060128;28;20020;-89
2021/12/03 00:42:58;;;;;;;11.15;6.13;;;307.30;2304.00;;;;;;5057879;28;20024;-90
2021/12/03 00:45:24;;;;;;;8.18;4.70;;;307.50;2304.00;;;;;;5057596;28;20024;-87
2021/12/03 00:47:50;;;;;;;7.07;4.82;;;307.30;2304.00;;;;;;5056931;28;20044;-89
2021/12/03 00:50:22;;;;;;;9.40;4.90;;;307.30;2304.00;;;;;;5057038;28;20471;-89
2021/12/03 00:52:49;;;;;;;10.50;6.13;;;282.50;2278.40;;;;;;5074631;28;20020;-88
2021/12/03 00:55:16;;;;;;;6.95;4.63;;;282.50;2278.40;;;;;;5057028;28;20035;-89
2021/12/03 00:57:42;;;;;;;10.20;5.03;;;282.40;2278.40;;;;;;5056556;28;20024;-89
2021/12/03 01:00:12;;;;;;;13.00;7.55;;;307.30;2304.00;;;;;;5056686;28;20028;-88
2021/12/03 01:02:38;;;;;;;10.93;6.25;;;282.20;2278.40;;;;;;5056678;28;20464;-89
2021/12/03 01:05:04;;;;;;;7.82;4.45;;;282.30;2278.40;;;;;;5056513;28;20029;-89
2021/12/03 01:07:30;;;;;;;6.50;4.00;;;282.20;2278.40;;;;;;5056748;28;20520;-89
2021/12/03 01:09:56;;;;;;;7.25;4.15;;;282.20;2278.40;;;;;;5056719;28;20078;-89
2021/12/03 01:12:22;;;;;;;8.57;5.53;;;282.10;2278.40;;;;;;5056594;28;20137;-90
2021/12/03 01:14:48;;;;;;;11.20;6.05;;;282.10;2278.40;;;;;;5056852;28;20078;-89
2021/12/03 01:17:13;;;;;;;12.77;5.53;;;282.10;2278.40;;;;;;5056647;28;20108;-88
2021/12/03 01:19:41;;;;;;;14.05;7.97;;;282.00;2278.40;;;;;;5056700;28;20027;-90
2021/12/03 01:22:07;;;;;;;8.38;4.70;;;282.00;2278.40;;;;;;5057093;28;20107;-89
2021/12/03 01:24:33;;;;;;;7.95;4.72;;;282.30;2278.40;;;;;;5056078;28;20531;-89
2021/12/03 01:26:59;;;;;;;10.43;5.55;;;282.30;2278.40;;;;;;5056762;28;20075;-90
2021/12/03 01:29:24;;;;;;;11.40;7.90;;;282.30;2278.40;;;;;;5056595;28;20025;-89
2021/12/03 01:31:53;;;;;;;13.63;8.65;;;282.30;2278.40;;;;;;5056495;28;20341;-89
2021/12/03 01:34:20;;;;;;;21.42;8.73;;;282.20;2278.40;;;;;;5056693;28;20032;-89
2021/12/03 01:36:45;;;;;;;13.30;8.82;;;282.30;2278.40;;;;;;5056629;28;20016;-89
2021/12/03 01:39:13;;;;;;;11.70;6.75;;;282.20;2278.40;;;;;;5056554;28;20061;-90
2021/12/03 01:41:40;;;;;;;16.25;11.65;;;282.20;2278.40;;;;;;5056419;28;20024;-89
2021/12/03 01:44:07;;;;;;;10.10;7.07;;;282.20;2278.40;;;;;;5056425;28;20123;-89
2021/12/03 01:46:33;;;;;;;8.13;4.70;;;282.10;2278.40;;;;;;5056328;28;20024;-89
2021/12/03 01:49:01;;;;;;;7.95;5.15;;;282.20;2278.40;;;;;;5074224;28;20017;-89
2021/12/03 01:51:27;;;;;;;10.77;6.22;;;282.30;2278.40;;;;;;5056400;28;20028;-89
2021/12/03 01:53:54;;;;;;;11.13;6.68;;;282.30;2278.40;;;;;;5056242;28;20420;-89
2021/12/03 01:56:21;;;;;;;10.80;7.88;;;282.20;2278.40;;;;;;5074197;28;20017;-89
2021/12/03 01:58:49;;;;;;;13.25;9.30;;;282.10;2278.40;;;;;;5056278;28;20031;-90
2021/12/03 02:01:20;;;;;;;19.98;11.75;;;282.10;2278.40;;;;;;5056321;28;20108;-90
2021/12/03 02:03:50;;;;;;;17.60;12.88;;;282.00;2278.40;;;;;;5056394;28;20123;-89
2021/12/03 02:06:16;;;;;;;25.75;15.40;;;282.00;2278.40;;;;;;5056161;28;20031;-89
2021/12/03 02:08:42;;;;;;;26.10;17.83;;;282.00;2278.40;;;;;;5056166;28;20021;-88
2021/12/03 02:11:10;;;;;;;48.17;21.00;;;282.00;2278.40;;;;;;5058197;28;20021;-90
2021/12/03 02:13:37;;;;;;;24.05;12.48;;;282.00;2278.40;;;;;;5059707;28;20028;-88
2021/12/03 02:16:05;;;;;;;24.13;10.18;;;282.20;2278.40;;;;;;5059814;28;20027;-90
2021/12/03 02:18:30;;;;;;;12.20;6.65;;;282.40;2278.40;;;;;;5059944;28;20448;-89
2021/12/03 02:20:59;;;;;;;26.05;14.10;;;282.50;2278.40;;;;;;5059763;28;20108;-89
2021/12/03 02:23:27;;;;;;;18.20;9.77;;;307.30;2304.00;;;;;;5055938;28;20543;-88
2021/12/03 02:25:54;;;;;;;25.13;10.40;;;307.40;2304.00;;;;;;5056461;28;20023;-89
2021/12/03 02:28:23;;;;;;;28.90;13.18;;;307.40;2304.00;;;;;;5056292;28;20060;-89
2021/12/03 02:30:50;;;;;;;25.75;11.75;;;307.50;2304.00;;;;;;5056163;28;20082;-87
2021/12/03 02:33:17;;;;;;;22.33;11.65;;;307.50;2304.00;;;;;;5055994;28;20021;-88
2021/12/03 02:35:44;;;;;;;19.52;9.48;;;307.40;2304.00;;;;;;5055931;28;20021;-89
2021/12/03 02:38:13;;;;;;;14.88;7.82;;;307.40;2304.00;;;;;;5057413;28;20017;-89
2021/12/03 02:40:39;;;;;;;12.40;5.38;;;307.40;2304.00;;;;;;5057190;28;20067;-88
2021/12/03 02:43:05;;;;;;;10.18;4.50;;;307.40;2304.00;;;;;;5055720;28;20028;-88
2021/12/03 02:45:31;;;;;;;9.25;4.93;;;307.40;2304.00;;;;;;5055921;28;20017;-90
2021/12/03 02:48:01;;;;;;;9.55;4.90;;;307.30;2304.00;;;;;;5056017;28;20051;-88
2021/12/03 02:50:27;;;;;;;8.38;5.25;;;307.20;2304.00;;;;;;5055715;28;20139;-87
2021/12/03 02:52:53;;;;;;;7.55;4.85;;;282.40;2278.40;;;;;;5055723;28;20119;-88
2021/12/03 02:55:20;;;;;;;6.88;4.70;;;282.30;2278.40;;;;;;5055563;28;20028;-89
2021/12/03 02:57:46;;;;;;;9.93;5.43;;;282.30;2278.40;;;;;;5055629;28;20112;-88
2021/12/03 03:00:15;;;;;;;10.27;5.78;;;282.20;2278.40;;;;;;5055651;28;20025;-89
2021/12/03 03:02:41;;;;;;;9.73;6.28;;;282.20;2278.40;;;;;;5055412;28;20456;-89
2021/12/03 03:05:08;;;;;;;7.93;4.57;;;282.20;2278.40;;;;;;5055499;28;20040;-89
2021/12/03 03:07:34;;;;;;;7.30;4.35;;;282.20;2278.40;;;;;;5055569;28;20021;-90
2021/12/03 03:10:00;;;;;;;8.40;5.07;;;282.30;2278.40;;;;;;5055116;28;20086;-88
2021/12/03 03:12:26;;;;;;;9.48;6.18;;;282.30;2278.40;;;;;;5055672;28;20372;-89
2021/12/03 03:14:56;;;;;;;6.53;4.22;;;282.30;2278.40;;;;;;5055405;28;20025;-89
2021/12/03 03:17:24;;;;;;;9.05;5.13;;;282.30;2278.40;;;;;;5055429;28;20053;-90
2021/12/03 03:19:50;;;;;;;10.88;4.45;;;282.30;2278.40;;;;;;5055306;28;20364;-89
2021/12/03 03:22:16;;;;;;;7.05;3.70;;;282.50;2278.40;;;;;;5055387;28;20032;-89
2021/12/03 03:24:43;;;;;;;8.77;4.70;;;282.50;2278.40;;;;;;5054795;28;20068;-88
2021/12/03 03:27:09;;;;;;;19.05;9.73;;;282.50;2278.40;;;;;;5055291;28;20067;-89
2021/12/03 03:29:35;;;;;;;18.17;9.13;;;307.20;2304.00;;;;;;5055188;28;20025;-88
2021/12/03 03:32:02;;;;;;;16.63;7.25;;;307.20;2304.00;;;;;;5055083;28;20025;-89
2021/12/03 03:34:28;;;;;;;16.30;7.65;;;307.30;2304.00;;;;;;5055169;28;20032;-89
2021/12/03 03:36:54;;;;;;;23.63;10.73;;;307.30;2304.00;;;;;;5055202;28;20025;-89
2021/12/03 03:39:20;;;;;;;20.27;10.35;;;307.40;2304.00;;;;;;5055055;28;20021;-90
2021/12/03 03:41:47;;;;;;;33.22;16.67;;;307.40;2304.00;;;;;;5054931;28;20444;-89
2021/12/03 03:44:15;;;;;;;48.78;19.48;;;307.50;2304.00;;;;;;5054750;28;20032;-88
2021/12/03 03:46:42;;;;;;;26.63;9.90;;;307.50;2304.00;;;;;;5054952;28;20360;-89
2021/12/03 03:49:08;;;;;;;27.02;12.40;;;307.50;2304.00;;;;;;5054895;28;20032;-89
2021/12/03 03:51:34;;;;;;;9.68;4.30;;;307.50;2304.00;;;;;;5054658;28;20017;-89
2021/12/03 03:54:00;;;;;;;12.23;5.68;;;307.50;2304.00;;;;;;5054782;28;20032;-89
2021/12/03 03:56:27;;;;;;;11.88;5.97;;;307.60;2304.00;;;;;;5054803;28;20025;-89
2021/12/03 03:58:53;;;;;;;9.32;4.43;;;307.50;2304.00;;;;;;5054118;28;20021;-88
2021/12/03 04:01:19;;;;;;;12.90;5.30;;;307.60;2304.00;;;;;;5054440;28;20013;-90
2021/12/03 04:03:48;;;;;;;22.40;9.10;;;307.50;2304.00;;;;;;5054654;28;20064;-89
2021/12/03 04:06:16;;;;;;;28.55;11.70;;;307.60;2304.00;;;;;;5054221;28;20082;-89
2021/12/03 04:08:43;;;;;;;8.55;3.90;;;307.60;2304.00;;;;;;5054233;28;20017;-89
2021/12/03 04:11:10;;;;;;;22.98;10.80;;;307.60;2304.00;;;;;;5054301;28;20371;-88
2021/12/03 04:13:36;;;;;;;18.20;8.82;;;307.70;2304.00;;;;;;5054219;28;20496;-89
2021/12/03 04:16:03;;;;;;;10.30;5.00;;;307.60;2304.00;;;;;;5054198;28;20449;-89
2021/12/03 04:18:29;;;;;;;22.48;9.25;;;307.60;2304.00;;;;;;5068892;28;20044;-87
2021/12/03 04:20:55;;;;;;;15.00;6.65;;;307.60;2304.00;;;;;;5071664;28;20025;-89
2021/12/03 04:23:20;;;;;;;17.48;9.13;;;307.60;2304.00;;;;;;5057486;28;20051;-88
2021/12/03 04:25:49;;;;;;;18.30;9.85;;;307.60;2304.00;;;;;;5075412;28;20032;-89
2021/12/03 04:28:16;;;;;;;31.98;13.27;;;307.60;2304.00;;;;;;5057348;28;20020;-88
2021/12/03 04:30:43;;;;;;;18.67;9.20;;;307.60;2304.00;;;;;;5057291;28;20121;-88
2021/12/03 04:33:10;;;;;;;27.52;14.07;;;307.50;2304.00;;;;;;5056706;28;20017;-89
2021/12/03 04:35:36;;;;;;;27.02;12.27;;;307.60;2304.00;;;;;;5057087;28;20027;-88
2021/12/03 04:38:02;;;;;;;26.17;11.45;;;307.50;2304.00;;;;;;5057056;28;20069;-89
2021/12/03 04:40:29;;;;;;;21.58;10.07;;;307.50;2304.00;;;;;;5056947;28;20028;-89
2021/12/03 04:42:55;;;;;;;25.83;9.77;;;307.50;2304.00;;;;;;5056786;28;20047;-89
2021/12/03 04:45:23;;;;;;;26.40;11.38;;;307.40;2304.00;;;;;;5056850;28;20093;-88
2021/12/03 04:47:51;;;;;;;29.88;13.85;;;307.30;2304.00;;;;;;5056907;28;20024;-89
2021/12/03 04:50:19;;;;;;;29.35;15.07;;;307.30;2304.00;;;;;;5057027;28;20025;-87
2021/12/03 04:52:46;;;;;;;19.80;12.73;;;307.20;2304.00;;;;;;5056841;28;20009;-88
2021/12/03 04:55:13;;;;;;;16.00;9.57;;;282.50;2278.40;;;;;;5056674;28;20025;-88
2021/12/03 04:57:40;;;;;;;17.02;12.57;;;282.50;2278.40;;;;;;5056733;28;20031;-88
2021/12/03 05:00:11;;;;;;;21.30;18.30;;;307.20;2304.00;;;;;;5056906;28;20026;-88
2021/12/03 05:02:37;;;;;;;22.42;15.52;;;282.50;2278.40;;;;;;5056734;28;20021;-89
2021/12/03 05:05:05;;;;;;;14.60;10.05;;;282.50;2278.40;;;;;;5056733;28;20028;-89
2021/12/03 05:07:53;;;;;;;12.23;8.77;;;282.50;2278.40;;;;;;5056824;28;20465;-89
2021/12/03 05:10:17;;;;;;;11.63;8.45;;;282.50;2278.40;;;;;;5073963;28;20017;-88
2021/12/03 05:12:43;;;;;;;11.52;7.10;;;282.50;2278.40;;;;;;5056553;28;20032;-88
2021/12/03 05:15:10;;;;;;;10.55;7.13;;;282.50;2278.40;;;;;;5056527;28;20028;-88
2021/12/03 05:17:35;;;;;;;14.05;12.57;;;282.50;2278.40;;;;;;5056447;28;20024;-89
2021/12/03 05:20:03;;;;;;;20.25;18.08;;;282.50;2278.40;;;;;;5056565;28;20020;-89
2021/12/03 05:22:29;;;;;;;17.05;10.88;;;282.50;2278.40;;;;;;5056367;28;20028;-89
2021/12/03 05:24:55;;;;;;;12.35;10.80;;;282.50;2278.40;;;;;;5056263;28;20571;-89
2021/12/03 05:27:21;;;;;;;14.20;9.57;;;282.50;2278.40;;;;;;5056431;28;20020;-89
2021/12/03 05:29:48;;;;;;;14.18;9.80;;;282.50;2278.40;;;;;;5056507;28;20020;-89
2021/12/03 05:32:16;;;;;;;28.05;16.90;;;282.50;2278.40;;;;;;5056616;28;20028;-89
2021/12/03 05:34:42;;;;;;;14.95;10.40;;;282.40;2278.40;;;;;;5056698;28;20024;-88
2021/12/03 05:37:08;;;;;;;15.05;8.20;;;282.40;2278.40;;;;;;5056347;28;20436;-89
2021/12/03 05:39:36;;;;;;;16.00;12.00;;;282.40;2278.40;;;;;;5056515;28;20029;-88
2021/12/03 05:42:02;;;;;;;20.15;14.63;;;282.30;2278.40;;;;;;5056414;28;20020;-88
2021/12/03 05:44:29;;;;;;;18.42;11.10;;;282.30;2278.40;;;;;;5056225;28;20487;-89
2021/12/03 05:46:57;;;;;;;16.38;11.23;;;282.40;2278.40;;;;;;5059837;28;20017;-89
2021/12/03 05:49:23;;;;;;;34.83;24.45;;;282.30;2278.40;;;;;;5060160;28;20115;-89
2021/12/03 05:51:49;;;;;;;25.17;19.33;;;282.40;2278.40;;;;;;5060376;28;20529;-88
2021/12/03 05:54:15;;;;;;;36.72;31.65;;;282.30;2278.40;;;;;;5060366;28;20173;-88
2021/12/03 05:56:40;;;;;;;49.40;41.72;;;282.50;2278.40;;;;;;5060272;28;20046;-89
2021/12/03 05:59:06;;;;;;;39.40;32.17;;;282.50;2278.40;;;;;;5060018;28;20051;-89
2021/12/03 06:01:32;;;;;;;44.95;34.28;;;282.50;2278.40;;;;;;5060038;28;20023;-87
2021/12/03 06:03:58;;;;;;;30.88;25.48;;;282.50;2278.40;;;;;;5060034;28;20128;-90
2021/12/03 06:06:24;;;;;;;47.08;37.40;;;282.50;2278.40;;;;;;5059961;28;20060;-90
2021/12/03 06:08:50;;;;;;;51.03;37.42;;;282.50;2278.40;;;;;;5060251;28;20020;-89
2021/12/03 06:11:16;;;;;;;83.53;67.90;;;282.50;2278.40;;;;;;5060171;28;20017;-90
2021/12/03 06:13:42;;;;;;;20.42;13.25;;;282.50;2278.40;;;;;;5060124;28;20119;-90
2021/12/03 06:16:11;;;;;;;23.80;18.70;;;307.20;2304.00;;;;;;5060124;28;20063;-89
2021/12/03 06:18:37;;;;;;;19.80;13.27;;;307.20;2304.00;;;;;;5059951;28;20073;-90
2021/12/03 06:21:05;;;;;;;20.33;16.23;;;282.50;2278.40;;;;;;5059818;28;20528;-90
2021/12/03 06:23:31;;;;;;;22.75;15.75;;;307.30;2304.00;;;;;;5059511;28;20040;-90
2021/12/03 06:25:58;;;;;;;27.30;19.98;;;307.30;2304.00;;;;;;5060319;28;20486;-90
2021/12/03 06:28:25;;;;;;;29.10;18.98;;;307.50;2304.00;;;;;;5059866;28;20035;-90
2021/12/03 06:30:51;;;;;;;42.08;27.40;;;307.50;2304.00;;;;;;5059615;28;20027;-90
2021/12/03 06:33:19;;;;;;;16.13;11.82;;;307.50;2304.00;;;;;;5059675;28;20029;-90
2021/12/03 06:35:46;;;;;;;19.73;14.32;;;307.50;2304.00;;;;;;5059834;28;20028;-89
2021/12/03 06:38:12;;;;;;;16.23;11.90;;;307.50;2304.00;;;;;;5059861;28;20119;-90
2021/12/03 06:40:38;;;;;;;22.08;15.95;;;307.60;2304.00;;;;;;5059696;28;20066;-91
2021/12/03 06:43:04;;;;;;;16.35;13.15;;;307.60;2304.00;;;;;;5059641;28;20020;-90
2021/12/03 06:45:30;;;;;;;23.92;14.63;;;307.60;2304.00;;;;;;5059212;28;20032;-90
2021/12/03 06:47:56;;;;;;;19.17;10.70;;;307.60;2304.00;;;;;;5059466;28;20028;-90
2021/12/03 06:50:24;;;;;;;16.98;10.35;;;307.70;2304.00;;;;;;5059276;28;20017;-92
2021/12/03 06:53:00;;;;;;;18.08;10.43;;;307.70;2304.00;;;;;;5059165;28;20028;-90
2021/12/03 06:55:26;;;;;;;36.10;22.58;;;307.80;2304.00;;;;;;5059223;28;20475;-90
2021/12/03 06:57:52;;;;;;;29.65;18.08;;;307.80;2304.00;;;;;;5058868;28;20020;-90
2021/12/03 07:00:19;;;;;;;16.42;10.77;;;307.80;2304.00;;;;;;5059160;28;20028;-90
2021/12/03 07:02:44;;;;;;;21.45;12.90;;;307.90;2304.00;;;;;;5059184;28;20078;-87
2021/12/03 07:05:11;;;;;;;18.20;12.07;;;307.80;2304.00;;;;;;5059304;28;20037;-88
2021/12/03 07:07:36;;;;;;;12.05;6.82;;;307.70;2304.00;;;;;;5058692;28;20025;-88
2021/12/03 07:10:04;;;;;;;27.02;15.73;;;307.90;2304.00;;;;;;5059011;28;20023;-88
2021/12/03 07:12:30;;;;;;;30.02;19.95;;;307.90;2304.00;;;;;;5059094;28;20024;-86
2021/12/03 07:14:57;;;;;;;28.10;16.13;;;307.90;2304.00;;;;;;5058611;28;20123;-87
2021/12/03 07:17:23;;;;;;;24.15;16.65;;;307.90;2304.00;;;;;;5076582;28;20039;-87
2021/12/03 07:19:55;;;;;;;23.40;14.55;;;307.90;2304.00;;;;;;5059449;28;20021;-88
2021/12/03 07:22:21;;;;;;;12.83;7.63;;;307.90;2304.00;;;;;;5059586;28;20032;-88
2021/12/03 07:24:47;;;;;;;8.75;5.13;;;308.00;2304.00;;;;;;5058268;28;20037;-88
2021/12/03 07:27:13;;;;;;;19.13;12.70;;;308.00;2304.00;;;;;;5058430;28;20495;-88
2021/12/03 07:29:38;;;;;;;21.50;12.00;;;308.10;2304.00;;;;;;5058639;28;20062;-88
2021/12/03 07:32:05;;;;;;;18.08;11.80;;;308.10;2304.00;;;;;;5058721;28;20031;-88
2021/12/03 07:34:32;;;;;;;11.43;6.57;;;308.00;2304.00;;;;;;5058425;28;20036;-85
2021/12/03 07:36:58;;;;;;;22.63;13.88;;;308.00;2304.00;;;;;;5075723;28;20020;-85
2021/12/03 07:39:24;;;;;;;39.00;26.02;;;308.00;2304.00;;;;;;5057873;28;20031;-85
2021/12/03 07:41:50;;;;;;;18.33;12.02;;;308.00;2304.00;;;;;;5057782;28;20111;-81
2021/12/03 07:44:15;;;;;;;24.20;14.50;;;308.10;2304.00;;;;;;5075003;28;20039;-83
2021/12/03 07:46:41;;;;;;;14.73;10.73;;;308.10;2304.00;;;;;;5057513;28;20024;-82
2021/12/03 07:49:07;;;;;;;22.50;15.65;;;332.80;2329.60;;;;;;5057450;28;20024;-83
2021/12/03 07:51:33;;;;;;;29.23;22.75;;;332.80;2329.60;;;;;;5057128;28;20032;-82
2021/12/03 07:53:58;;;;;;;50.85;32.40;;;332.80;2329.60;;;;;;5057292;28;20055;-84
2021/12/03 07:56:24;;;;;;;32.55;20.08;;;308.10;2304.00;;;;;;5057088;28;20052;-82
2021/12/03 07:58:50;;;;;;;18.70;12.85;;;308.10;2304.00;;;;;;5075112;28;20024;-86
2021/12/03 08:01:16;;;;;;;27.10;18.10;;;332.80;2329.60;;;;;;5057432;28;20021;-86
2021/12/03 08:03:42;;;;;;;24.55;21.13;;;332.80;2329.60;;;;;;5056963;28;20461;-85
2021/12/03 08:06:09;;;;;;;27.95;23.80;;;332.90;2329.60;;;;;;5057303;28;20028;-85
2021/12/03 08:08:40;;;;;;;19.92;16.67;;;332.90;2329.60;;;;;;5056313;28;20023;-84
2021/12/03 08:11:07;;;;;;;15.40;7.03;;;332.90;2329.60;;;;;;5057160;28;20020;-84
2021/12/03 08:13:33;;;;;;;20.25;16.00;;;332.90;2329.60;;;;;;5075009;28;20030;-85
2021/12/03 08:16:00;;;;;;;17.30;11.70;;;332.90;2329.60;;;;;;5057024;28;20016;-81
2021/12/03 08:18:25;;;;;;;19.83;15.52;;;332.90;2329.60;;;;;;5074839;28;20070;-85
2021/12/03 08:20:53;;;;;;;16.02;9.30;;;332.90;2329.60;;;;;;5056952;28;20017;-83
2021/12/03 08:23:19;;;;;;;21.25;13.38;;;332.90;2329.60;;;;;;5056674;28;20045;-84
2021/12/03 08:25:45;;;;;;;18.58;11.00;;;332.90;2329.60;;;;;;5056550;28;20429;-82
2021/12/03 08:28:11;;;;;;;30.75;21.25;;;332.90;2329.60;;;;;;5056994;28;20059;-89
2021/12/03 08:30:38;;;;;;;25.65;14.90;;;332.90;2329.60;;;;;;5057483;28;20020;-92
2021/12/03 08:33:04;;;;;;;22.65;16.95;;;332.90;2329.60;;;;;;5057128;28;20024;-87
2021/12/03 08:35:30;;;;;;;36.40;27.17;;;332.90;2329.60;;;;;;5057001;28;20372;-90
2021/12/03 08:37:57;;;;;;;19.48;11.45;;;332.90;2329.60;;;;;;5056697;28;20056;-91
2021/12/03 08:40:24;;;;;;;17.33;11.55;;;332.90;2329.60;;;;;;5056830;28;20111;-85
2021/12/03 08:42:50;;;;;;;20.00;12.45;;;332.90;2329.60;;;;;;5075176;28;20099;-87
2021/12/03 08:45:17;;;;;;;17.05;12.40;;;332.90;2329.60;;;;;;5056842;28;20090;-90
2021/12/03 08:47:46;;;;;;;29.02;19.42;;;332.90;2329.60;;;;;;5057098;28;20024;-87
2021/12/03 08:50:17;;;;;;;8.23;5.53;;;332.80;2329.60;;;;;;5056999;28;20047;-88
2021/12/03 08:55:12;;;;;;;11.63;7.57;;;332.90;2329.60;;;;;;5074789;28;20478;-90
2021/12/03 08:57:38;;;;;;;14.43;9.85;;;332.90;2329.60;;;;;;5057134;28;20029;-88
2021/12/03 09:00:15;;;;;;;10.23;6.63;;;332.80;2329.60;;;;;;5056590;28;20411;-86
2021/12/03 09:02:42;;;;;;;24.67;16.25;;;308.10;2304.00;;;;;;5056688;28;20021;-81
2021/12/03 09:05:09;;;;;;;18.05;12.27;;;333.10;2329.60;;;;;;5056121;28;20035;-81
2021/12/03 09:07:35;;;;;;;27.25;16.33;;;308.10;2304.00;;;;;;5055661;28;20031;-80
2021/12/03 09:10:04;;;;;;;32.97;22.02;;;308.10;2304.00;;;;;;5056068;28;20025;-77
2021/12/03 09:12:30;;;;;;;39.47;25.08;;;308.00;2304.00;;;;;;5055889;28;20020;-78
2021/12/03 09:15:05;;;;;;;55.28;43.10;;;308.00;2304.00;;;;;;5055563;28;20035;-80
2021/12/03 09:22:52;;;;;;;56.63;42.88;;;307.70;2304.00;;;;;;5073649;28;20120;-82
2021/12/03 09:25:31;;;;;;;70.82;43.17;;;307.40;2304.00;;;;;;5055806;28;20044;-80
2021/12/03 09:27:59;;;;;;;57.65;41.00;;;307.40;2304.00;;;;;;5055730;28;20039;-80
2021/12/03 09:30:25;;;;;;;61.70;41.63;;;307.20;2304.00;;;;;;5055912;28;20024;-85
2021/12/03 09:32:57;;;;;;;69.40;52.60;;;307.20;2304.00;;;;;;5055859;28;20402;-83
2021/12/03 09:35:23;;;;;;;75.70;47.15;;;282.50;2278.40;;;;;;5056146;28;20368;-83
2021/12/03 09:37:49;;;;;;;73.30;46.45;;;282.50;2278.40;;;;;;5055749;28;20017;-80
2021/12/03 09:40:21;;;;;;;59.88;31.98;;;282.50;2278.40;;;;;;5055699;28;20027;-78
2021/12/03 09:42:48;;;;;;;24.23;16.58;;;282.40;2278.40;;;;;;5055251;28;20020;-84
2021/12/03 09:45:14;;;;;;;32.75;17.98;;;282.20;2278.40;;;;;;5055453;28;20029;-80
2021/12/03 09:47:40;;;;;;;44.40;26.38;;;282.10;2278.40;;;;;;5055699;28;20020;-79
2021/12/03 09:50:13;;;;;;;22.77;14.13;;;281.90;2278.40;;;;;;5055376;28;20017;-80
2021/12/03 09:55:10;;;;;;;46.70;32.25;;;256.70;2252.80;;;;;;5074513;28;20024;-91
2021/12/03 10:00:18;;;;;;;23.48;16.63;;;256.30;2252.80;;;;;;5074254;28;20020;-91
2021/12/03 10:02:59;;;;;;;22.27;15.30;;;256.30;2252.80;;;;;;5074002;28;20031;-91
2021/12/03 10:16:32;;;;;;;7.03;5.40;;;256.20;2252.80;;;;;;5074229;28;20036;-94
2021/12/03 10:19:06;;;;;;;10.38;5.68;;;256.00;2252.80;;;;;;5056140;28;20025;-93
2021/12/03 10:29:30;;;;;;;15.57;11.93;;;231.00;2252.80;;;;;;5052643;28;20465;-93
2021/12/03 14:40:39;;;;;;;13.32;9.57;;;128.40;2252.80;;;;;;4910951;29;20028;-78
2021/12/03 14:45:41;;;;;;;23.40;17.27;;;128.40;2252.80;;;;;;4950708;29;20027;-77
2021/12/03 14:57:55;;;;;;;30.00;24.98;;;128.20;2252.80;;;;;;4951623;29;20034;-78
2021/12/03 20:49:10;;;;;;;188.43;86.70;;;102.90;2227.20;;;;;;4951578;26;20110;-82
2021/12/03 20:54:17;;;;;;;144.52;96.20;;;103.10;2227.20;;;;;;4949610;28;20035;-77
2021/12/03 21:41:49;;;;;;;43.53;27.65;;;103.30;2227.20;;;;;;4926162;29;20055;-83
2021/12/03 21:45:08;;;;;;;38.17;26.93;;;103.10;2227.20;;;;;;4919036;29;20036;-83
2021/12/03 21:47:34;;;;;;;42.60;31.33;;;103.30;2227.20;;;;;;4908390;29;20259;-83
2021/12/03 21:50:01;;;;;;;50.58;34.33;;;128.20;2252.80;;;;;;4922059;28;20028;-81
2021/12/03 21:52:28;;;;;;;39.75;29.77;;;103.30;2227.20;;;;;;4999541;28;20438;-82
2021/12/03 21:54:54;;;;;;;42.65;28.25;;;128.00;2252.80;;;;;;4982691;28;20083;-82
2021/12/03 21:57:25;;;;;;;40.70;28.67;;;103.20;2227.20;;;;;;4953422;28;20035;-84
2021/12/03 22:00:47;;;;;;;47.88;33.60;;;103.30;2227.20;;;;;;4988133;28;20092;-83
2021/12/03 22:19:35;;;;;;;48.22;31.92;;;102.70;2227.20;;;;;;5105866;23;20129;-80
